Time;durP1;ratioP1;P1;durP2;ratioP2;P2;SDS_P1;SDS_P2;PMS_P1;PMS_P2;Temp;Humidity;BMP_temperature;BMP_pressure;BME280_temperature;BME280_humidity;BME280_pressure;Samples;Min_cycle;Max_cycle;Signal;HPM_P1;HPM_P2
2022/03/27 00:04:01;;;;;;;17.75;5.28;;;;;;;2.72;70.05;102070.09;3550521;82;98333;-89
2022/03/27 00:09:03;;;;;;;23.00;6.63;;;;;;;2.65;70.12;102075.88;3539244;82;98401;-89
2022/03/27 00:14:06;;;;;;;26.90;10.47;;;;;;;2.59;70.54;102084.34;3562089;81;98588;-89
2022/03/27 00:19:07;;;;;;;30.00;12.07;;;;;;;2.52;70.13;102087.37;3531826;82;98920;-89
2022/03/27 00:24:08;;;;;;;25.00;9.27;;;;;;;2.45;71.05;102099.12;3543102;82;98911;-89
2022/03/27 00:29:09;;;;;;;29.67;10.77;;;;;;;2.35;71.52;102097.83;3514550;82;98753;-89
2022/03/27 00:34:11;;;;;;;30.87;11.27;;;;;;;2.22;71.43;102099.00;3513061;82;98895;-88
2022/03/27 00:39:12;;;;;;;33.23;12.37;;;;;;;2.11;71.74;102106.41;3545617;82;32572;-89
2022/03/27 00:44:13;;;;;;;35.00;12.17;;;;;;;1.98;72.27;102094.78;3535366;82;98656;-89
2022/03/27 00:49:16;;;;;;;35.80;12.33;;;;;;;1.86;73.07;102095.66;3534994;82;98863;-89
2022/03/27 00:54:17;;;;;;;39.57;14.03;;;;;;;1.76;73.02;102098.98;3513295;82;98874;-87
2022/03/27 00:59:18;;;;;;;37.27;14.80;;;;;;;1.60;73.43;102090.63;3528150;82;98906;-88
2022/03/27 01:04:19;;;;;;;34.90;13.57;;;;;;;1.48;73.61;102085.50;3522478;82;98946;-87
2022/03/27 01:09:35;;;;;;;40.67;11.23;;;;;;;1.38;73.80;102084.17;3550604;82;32469;-88
2022/03/27 01:14:36;;;;;;;28.07;11.17;;;;;;;1.24;74.18;102079.61;3517962;82;99279;-88
2022/03/27 01:19:41;;;;;;;34.93;10.90;;;;;;;1.12;74.49;102078.56;3533226;82;98771;-88
2022/03/27 01:24:43;;;;;;;31.67;9.53;;;;;;;1.01;74.82;102086.45;3539710;82;98907;-87
2022/03/27 01:29:45;;;;;;;32.03;11.73;;;;;;;0.90;75.30;102076.70;3546762;82;98883;-87
2022/03/27 01:34:47;;;;;;;30.45;9.40;;;;;;;0.80;75.07;102085.37;3532719;82;98968;-88
2022/03/27 01:39:48;;;;;;;23.27;9.00;;;;;;;0.71;75.50;102095.15;3526294;82;32981;-88
2022/03/27 01:44:49;;;;;;;23.03;9.53;;;;;;;0.63;76.24;102095.14;3523246;82;98513;-88
2022/03/27 01:49:50;;;;;;;27.33;10.03;;;;;;;0.52;76.42;102098.10;3539427;82;98524;-88
2022/03/27 01:54:51;;;;;;;27.80;10.23;;;;;;;0.44;76.36;102092.67;3532782;81;98900;-88
2022/03/27 01:59:52;;;;;;;28.93;11.63;;;;;;;0.37;76.49;102103.50;3542722;82;99285;-88
2022/03/27 02:04:54;;;;;;;36.70;12.17;;;;;;;0.27;76.65;102108.36;3549715;82;99164;-88
2022/03/27 02:09:54;;;;;;;29.30;12.00;;;;;;;0.20;77.15;102099.69;3535464;82;33183;-88
2022/03/27 02:14:56;;;;;;;35.77;13.07;;;;;;;0.10;77.13;102111.84;3565030;82;98708;-88
2022/03/27 02:19:58;;;;;;;30.17;11.03;;;;;;;0.05;77.63;102106.94;3525675;82;98746;-89
2022/03/27 02:24:59;;;;;;;34.30;11.90;;;;;;;-0.03;77.55;102098.00;3522738;82;98908;-89
2022/03/27 02:30:00;;;;;;;29.70;11.07;;;;;;;-0.11;77.30;102098.50;3544551;82;99055;-88
2022/03/27 02:35:01;;;;;;;29.87;10.20;;;;;;;-0.19;77.79;102103.09;3534464;82;99040;-87
2022/03/27 02:40:03;;;;;;;29.30;11.33;;;;;;;-0.24;78.27;102099.56;3544591;82;32452;-88
2022/03/27 02:45:05;;;;;;;27.60;11.57;;;;;;;-0.29;77.97;102090.08;3541253;82;98996;-89
2022/03/27 02:50:07;;;;;;;30.80;11.03;;;;;;;-0.32;78.78;102105.73;3541212;82;98315;-88
2022/03/27 02:55:08;;;;;;;33.40;12.53;;;;;;;-0.38;78.47;102111.41;3508046;82;99058;-89
2022/03/27 03:00:10;;;;;;;24.67;10.20;;;;;;;-0.46;78.43;102117.30;3513754;82;99275;-90
2022/03/27 03:05:13;;;;;;;23.43;9.00;;;;;;;-0.49;78.52;102129.19;3525446;82;99185;-89
2022/03/27 03:10:17;;;;;;;28.83;10.58;;;;;;;-0.53;78.86;102134.84;3539391;81;99064;-90
2022/03/27 03:15:18;;;;;;;23.98;9.55;;;;;;;-0.57;79.00;102139.13;3531799;82;99254;-90
2022/03/27 03:20:20;;;;;;;22.23;9.23;;;;;;;-0.62;78.97;102143.19;3513531;82;97986;-89
2022/03/27 03:25:21;;;;;;;24.12;9.85;;;;;;;-0.67;79.38;102139.89;3539169;82;98985;-90
2022/03/27 03:30:22;;;;;;;22.53;8.73;;;;;;;-0.71;79.24;102138.78;3547907;82;99015;-90
2022/03/27 03:35:23;;;;;;;20.55;7.80;;;;;;;-0.74;79.43;102143.90;3506604;82;99168;-90
2022/03/27 03:40:24;;;;;;;19.17;7.63;;;;;;;-0.79;79.45;102138.45;3529376;82;99015;-89
2022/03/27 03:45:25;;;;;;;23.53;7.27;;;;;;;-0.83;79.48;102141.42;3528118;82;99001;-89
2022/03/27 03:50:29;;;;;;;20.20;7.57;;;;;;;-0.89;79.40;102144.62;3550285;81;97808;-89
2022/03/27 03:55:30;;;;;;;20.30;7.33;;;;;;;-0.91;80.18;102141.37;3516838;82;98816;-89
2022/03/27 04:00:31;;;;;;;17.43;7.03;;;;;;;-0.97;79.88;102145.11;3535533;82;99075;-90
2022/03/27 04:05:32;;;;;;;19.10;7.03;;;;;;;-1.02;79.80;102148.30;3535184;82;99833;-89
2022/03/27 04:10:33;;;;;;;20.13;8.63;;;;;;;-1.06;79.86;102144.47;3530859;82;99459;-89
2022/03/27 04:15:34;;;;;;;20.00;7.00;;;;;;;-1.11;80.02;102153.36;3511202;82;99094;-89
2022/03/27 04:20:36;;;;;;;20.33;7.10;;;;;;;-1.11;80.11;102151.22;3543476;82;99173;-89
2022/03/27 04:25:38;;;;;;;18.40;6.97;;;;;;;-1.18;80.11;102148.72;3517262;82;98939;-89
2022/03/27 04:30:39;;;;;;;17.70;7.07;;;;;;;-1.21;80.26;102151.92;3500615;82;99023;-89
2022/03/27 04:35:40;;;;;;;16.90;6.00;;;;;;;-1.24;80.28;102144.35;3509815;82;99101;-89
2022/03/27 04:40:41;;;;;;;19.33;7.83;;;;;;;-1.24;80.24;102150.28;3511850;82;99095;-89
2022/03/27 04:45:42;;;;;;;14.60;6.83;;;;;;;-1.27;80.65;102148.91;3494633;82;98596;-89
2022/03/27 04:50:44;;;;;;;14.70;6.60;;;;;;;-1.28;80.32;102155.37;3518227;82;98878;-89
2022/03/27 04:55:45;;;;;;;18.50;7.47;;;;;;;-1.29;80.23;102152.93;3519013;82;99135;-89
2022/03/27 05:00:46;;;;;;;18.50;8.67;;;;;;;-1.30;80.64;102156.70;3488484;83;98918;-89
2022/03/27 05:05:47;;;;;;;22.65;8.15;;;;;;;-1.32;80.37;102162.36;3508146;83;99018;-89
2022/03/27 05:10:48;;;;;;;22.13;8.07;;;;;;;-1.33;80.69;102162.09;3523651;82;98971;-89
2022/03/27 05:15:50;;;;;;;20.20;8.37;;;;;;;-1.33;80.97;102162.61;3494321;82;98771;-89
2022/03/27 05:20:51;;;;;;;22.77;9.23;;;;;;;-1.30;81.16;102158.06;3491841;83;98877;-89
2022/03/27 05:25:52;;;;;;;25.13;8.70;;;;;;;-1.28;81.17;102154.55;3486040;82;98956;-89
2022/03/27 05:30:54;;;;;;;18.33;7.63;;;;;;;-1.27;80.97;102155.66;3536719;82;99004;-89
2022/03/27 05:35:56;;;;;;;17.27;7.03;;;;;;;-1.24;81.04;102160.55;3548690;82;99116;-88
2022/03/27 05:40:56;;;;;;;19.07;8.13;;;;;;;-1.20;81.06;102171.10;3543933;82;99058;-88
2022/03/27 05:45:57;;;;;;;19.90;8.17;;;;;;;-1.14;81.05;102166.58;3565607;82;98807;-88
2022/03/27 05:50:58;;;;;;;23.37;9.03;;;;;;;-1.07;80.82;102177.45;3532441;82;98588;-88
2022/03/27 05:56:00;;;;;;;22.37;8.10;;;;;;;-0.93;80.96;102177.28;3537709;82;98819;-87
2022/03/27 06:01:00;;;;;;;24.23;10.17;;;;;;;-0.73;80.65;102175.29;3543686;82;99389;-86
2022/03/27 06:06:03;;;;;;;19.70;9.70;;;;;;;-0.57;80.94;102176.99;3543923;82;99603;-85
2022/03/27 06:11:05;;;;;;;27.52;11.45;;;;;;;-0.37;80.43;102186.59;3570273;82;98340;-87
2022/03/27 06:16:05;;;;;;;24.23;9.83;;;;;;;-0.18;80.04;102180.47;3556925;82;98232;-86
2022/03/27 06:21:07;;;;;;;20.70;9.13;;;;;;;0.03;80.05;102180.31;3547990;82;97727;-86
2022/03/27 06:26:08;;;;;;;22.77;9.50;;;;;;;0.28;80.42;102187.72;3536222;82;98462;-86
2022/03/27 06:31:08;;;;;;;27.77;11.27;;;;;;;0.61;80.35;102200.24;3533765;82;98759;-86
2022/03/27 06:36:09;;;;;;;25.47;9.93;;;;;;;0.90;79.73;102208.70;3522318;82;98778;-87
2022/03/27 06:41:10;;;;;;;24.13;8.17;;;;;;;1.17;78.86;102209.25;3529149;82;98626;-87
2022/03/27 06:46:16;;;;;;;21.60;8.13;;;;;;;1.37;78.12;102218.75;3533241;82;98939;-87
2022/03/27 06:51:15;;;;;;;21.27;7.20;;;;;;;1.62;77.52;102215.98;3529653;82;25767;-88
2022/03/27 06:56:16;;;;;;;17.97;6.23;;;;;;;1.89;76.21;102222.72;3541488;81;98678;-89
2022/03/27 07:06:38;;;;;;;18.90;6.17;;;;;;;2.39;74.97;102242.91;3541029;82;98818;-85
2022/03/27 07:11:39;;;;;;;16.05;5.15;;;;;;;2.68;73.48;102234.88;3533431;82;98743;-87
2022/03/27 07:16:41;;;;;;;17.97;6.27;;;;;;;3.07;71.40;102232.98;3540349;82;98775;-86
2022/03/27 07:21:42;;;;;;;11.27;3.30;;;;;;;3.35;71.00;102243.92;3540164;82;98830;-86
2022/03/27 07:26:43;;;;;;;10.30;4.30;;;;;;;3.57;69.53;102241.55;3531486;82;97623;-88
2022/03/27 07:31:44;;;;;;;12.50;2.70;;;;;;;3.80;69.07;102248.12;3478184;82;98548;-90
2022/03/27 07:36:45;;;;;;;10.27;2.93;;;;;;;4.06;67.82;102266.66;3549319;82;98668;-86
2022/03/27 07:41:46;;;;;;;10.43;3.47;;;;;;;4.25;66.41;102262.06;3547120;82;98741;-84
2022/03/27 07:46:49;;;;;;;8.27;2.47;;;;;;;4.48;65.37;102260.44;3551493;82;98758;-87
2022/03/27 07:51:50;;;;;;;7.13;2.53;;;;;;;4.72;63.88;102273.47;3543845;82;98429;-88
2022/03/27 07:56:51;;;;;;;11.73;2.37;;;;;;;4.97;63.69;102256.76;3530668;82;98223;-85
2022/03/27 08:01:53;;;;;;;9.33;2.63;;;;;;;5.17;62.71;102255.06;3524735;82;98612;-85
2022/03/27 08:06:54;;;;;;;13.70;2.70;;;;;;;5.38;60.18;102250.37;3516985;82;98516;-84
2022/03/27 08:11:55;;;;;;;6.12;2.05;;;;;;;5.71;59.75;102241.05;3538233;82;98699;-84
2022/03/27 08:16:56;;;;;;;11.53;2.50;;;;;;;5.95;57.60;102232.15;3549751;82;98512;-83
2022/03/27 08:22:00;;;;;;;9.73;3.10;;;;;;;6.21;55.42;102240.11;3539417;82;98383;-83
2022/03/27 08:27:03;;;;;;;9.68;2.50;;;;;;;6.49;55.91;102230.77;3529015;82;98077;-83
2022/03/27 08:32:12;;;;;;;9.75;3.08;;;;;;;6.75;56.21;102221.45;3521039;81;98439;-84
2022/03/27 08:37:18;;;;;;;10.55;2.65;;;;;;;7.02;54.45;102222.19;3538161;81;98470;-85
2022/03/27 08:42:20;;;;;;;11.10;3.47;;;;;;;7.33;54.80;102215.41;3534205;81;98964;-83
2022/03/27 08:47:28;;;;;;;8.48;2.20;;;;;;;7.68;53.06;102209.83;3549830;82;98704;-82
2022/03/27 08:53:01;;;;;;;9.45;2.50;;;;;;;8.13;53.65;102212.69;3537177;82;98442;-83
2022/03/27 08:58:03;;;;;;;8.03;2.08;;;;;;;8.76;51.72;102213.03;3542481;82;31568;-85
2022/03/27 09:03:07;;;;;;;8.45;2.45;;;;;;;9.35;49.93;102210.02;3529112;82;98466;-83
2022/03/27 09:08:10;;;;;;;6.10;2.00;;;;;;;9.91;48.34;102201.45;3544441;82;98295;-84
2022/03/27 09:13:16;;;;;;;8.37;2.17;;;;;;;10.52;46.56;102192.61;3539967;82;98619;-85
2022/03/27 09:18:18;;;;;;;5.25;2.02;;;;;;;11.15;47.56;102172.97;3545587;82;98871;-84
2022/03/27 09:23:30;;;;;;;5.75;2.00;;;;;;;11.76;45.44;102168.70;3534789;82;99169;-84
2022/03/27 09:28:41;;;;;;;5.90;1.77;;;;;;;12.23;44.99;102168.50;3569122;82;98795;-84
2022/03/27 09:33:52;;;;;;;7.55;2.60;;;;;;;13.05;42.64;102151.86;3531620;82;98587;-84
2022/03/27 09:39:16;;;;;;;11.25;2.90;;;;;;;13.47;43.83;102155.21;3541938;82;99048;-87
2022/03/27 09:44:21;;;;;;;9.23;2.92;;;;;;;13.97;42.64;102151.20;3534643;82;98800;-84
2022/03/27 09:49:34;;;;;;;7.58;2.37;;;;;;;14.38;39.81;102138.15;3539594;82;98833;-84
2022/03/27 09:55:07;;;;;;;8.63;3.05;;;;;;;14.36;41.03;102138.29;3525168;82;98815;-85
2022/03/27 10:00:19;;;;;;;8.45;2.37;;;;;;;14.85;40.45;102129.67;3525261;82;98847;-85
2022/03/27 10:05:24;;;;;;;6.90;3.00;;;;;;;15.63;41.39;102128.63;3551348;82;98882;-81
2022/03/27 10:10:27;;;;;;;6.53;1.70;;;;;;;15.99;38.86;102129.45;3530595;82;98831;-83
2022/03/27 10:15:30;;;;;;;8.08;1.85;;;;;;;15.45;37.22;102121.97;3531334;82;98384;-84
2022/03/27 10:20:37;;;;;;;8.45;2.90;;;;;;;15.32;37.90;102112.98;3523415;82;98707;-84
2022/03/27 10:25:48;;;;;;;8.93;2.92;;;;;;;15.55;37.77;102109.69;3514894;82;99150;-86
2022/03/27 10:30:53;;;;;;;10.95;3.85;;;;;;;15.45;37.52;102089.48;3558276;82;98844;-85
2022/03/27 10:36:06;;;;;;;8.25;3.35;;;;;;;16.01;38.05;102077.91;3527549;82;99091;-85
2022/03/27 10:41:38;;;;;;;7.85;2.75;;;;;;;15.53;36.89;102077.31;3510698;82;98819;-86
2022/03/27 10:46:39;;;;;;;6.87;2.60;;;;;;;15.72;36.92;102071.70;3522343;82;98843;-85
2022/03/27 10:51:46;;;;;;;7.87;3.07;;;;;;;15.86;36.37;102077.47;3540344;82;100358;-83
2022/03/27 10:56:51;;;;;;;8.78;2.47;;;;;;;16.17;35.85;102074.95;3529436;82;99234;-85
2022/03/27 11:01:58;;;;;;;7.93;3.13;;;;;;;16.25;36.74;102055.84;3540230;82;98805;-84
2022/03/27 11:07:21;;;;;;;9.60;3.05;;;;;;;16.36;35.71;102045.06;3533596;82;98942;-85
2022/03/27 11:12:29;;;;;;;10.13;3.75;;;;;;;16.44;35.90;102033.48;3536944;82;98895;-85
2022/03/27 11:17:45;;;;;;;11.05;3.40;;;;;;;16.56;36.20;102022.14;3527244;82;98956;-85
2022/03/27 11:22:52;;;;;;;7.55;2.45;;;;;;;16.79;35.54;102007.50;3540150;82;98949;-82
2022/03/27 11:28:06;;;;;;;7.75;2.80;;;;;;;16.20;34.90;102018.08;3538268;82;32532;-84
2022/03/27 11:33:30;;;;;;;8.78;2.40;;;;;;;16.11;35.70;102003.66;3530814;82;98709;-82
2022/03/27 11:38:38;;;;;;;7.58;2.75;;;;;;;15.92;34.06;102010.72;3522262;82;98649;-84
2022/03/27 11:43:39;;;;;;;8.45;2.80;;;;;;;15.68;33.89;102011.73;3515956;82;99181;-85
2022/03/27 11:48:40;;;;;;;9.98;3.15;;;;;;;15.68;35.14;101995.89;3535141;82;98740;-88
2022/03/27 11:53:41;;;;;;;7.97;2.33;;;;;;;15.74;33.58;101981.90;3526756;82;98940;-82
2022/03/27 11:58:43;;;;;;;5.95;2.33;;;;;;;15.59;34.87;101973.75;3544591;82;98797;-84
2022/03/27 12:03:44;;;;;;;8.33;2.72;;;;;;;15.76;34.62;101963.48;3523561;82;99076;-83
2022/03/27 12:08:48;;;;;;;7.08;2.36;;;;;;;15.67;34.40;101958.78;3540305;82;98713;-81
2022/03/27 12:13:50;;;;;;;8.83;3.45;;;;;;;15.74;34.21;101941.64;3532269;82;98750;-82
2022/03/27 12:18:53;;;;;;;8.63;2.25;;;;;;;15.54;34.55;101946.31;3541767;81;98829;-82
2022/03/27 12:23:59;;;;;;;8.48;2.58;;;;;;;15.75;34.50;101934.91;3511613;82;99058;-81
2022/03/27 12:29:40;;;;;;;7.60;2.77;;;;;;;15.61;33.67;101942.24;3529668;82;98883;-84
2022/03/27 12:34:44;;;;;;;17.75;2.70;;;;;;;15.45;34.83;101930.50;3570378;82;98879;-85
2022/03/27 12:39:54;;;;;;;10.15;3.00;;;;;;;15.63;35.04;101928.20;3554310;82;32492;-83
2022/03/27 12:45:11;;;;;;;9.63;3.77;;;;;;;15.50;34.28;101926.02;3524388;82;98903;-81
2022/03/27 12:50:30;;;;;;;7.20;2.75;;;;;;;15.57;34.30;101904.73;3547248;81;98706;-84
2022/03/27 12:55:59;;;;;;;9.85;2.37;;;;;;;15.35;34.34;101910.33;3536543;82;98855;-85
2022/03/27 13:01:24;;;;;;;8.08;2.75;;;;;;;15.36;35.37;101903.02;3537359;82;98959;-84
2022/03/27 13:06:36;;;;;;;6.20;2.83;;;;;;;15.44;34.26;101896.42;3549431;82;99188;-83
2022/03/27 13:11:43;;;;;;;8.33;2.35;;;;;;;15.32;34.46;101883.31;3548842;81;98879;-83
2022/03/27 13:16:51;;;;;;;8.83;2.87;;;;;;;15.29;35.13;101886.83;3544353;82;98852;-84
2022/03/27 13:21:57;;;;;;;8.55;3.02;;;;;;;15.40;35.92;101873.37;3523278;82;99003;-83
2022/03/27 13:27:04;;;;;;;6.40;2.60;;;;;;;15.41;35.34;101873.58;3555743;82;98689;-82
2022/03/27 13:32:07;;;;;;;9.33;3.00;;;;;;;15.28;35.63;101866.63;3535469;81;99020;-82
2022/03/27 13:37:08;;;;;;;10.30;3.25;;;;;;;15.12;34.69;101851.30;3530934;82;98814;-84
2022/03/27 13:47:30;;;;;;;7.67;2.65;;;;;;;14.92;35.84;101849.79;3512911;83;98820;-87
2022/03/27 13:52:31;;;;;;;9.03;3.30;;;;;;;15.03;36.13;101838.28;3523455;82;98900;-84
2022/03/27 13:57:33;;;;;;;6.93;2.33;;;;;;;15.11;36.28;101835.27;3554851;81;30594;-84
2022/03/27 14:02:40;;;;;;;13.33;3.27;;;;;;;15.14;36.85;101828.96;3527550;82;98624;-84
2022/03/27 14:07:38;;;;;;;9.33;3.37;;;;;;;15.23;36.35;101817.59;3541790;82;99074;-82
2022/03/27 14:12:41;;;;;;;8.23;2.90;;;;;;;15.10;36.44;101799.59;3543733;82;98903;-83
2022/03/27 14:17:42;;;;;;;7.53;3.17;;;;;;;15.00;36.81;101798.23;3546646;82;98852;-82
2022/03/27 14:22:46;;;;;;;12.20;3.80;;;;;;;14.90;35.66;101791.16;3537003;82;98828;-84
2022/03/27 14:27:47;;;;;;;10.70;3.42;;;;;;;14.70;36.36;101782.72;3548335;82;32502;-85
2022/03/27 14:32:55;;;;;;;8.43;2.77;;;;;;;14.67;37.23;101784.25;3543761;82;98874;-82
2022/03/27 14:37:57;;;;;;;7.80;2.90;;;;;;;14.62;36.64;101783.22;3547701;81;99035;-84
2022/03/27 14:42:58;;;;;;;9.25;3.40;;;;;;;14.54;37.61;101777.33;3524877;82;98915;-83
2022/03/27 14:48:00;;;;;;;13.05;3.10;;;;;;;14.55;37.30;101774.77;3525757;80;98904;-83
2022/03/27 14:53:01;;;;;;;10.32;3.45;;;;;;;14.50;37.12;101757.06;3530219;82;98987;-84
2022/03/27 14:58:05;;;;;;;9.57;3.50;;;;;;;14.46;37.84;101748.49;3532992;82;30271;-84
2022/03/27 15:03:07;;;;;;;9.20;3.10;;;;;;;14.41;37.72;101737.73;3531273;82;98860;-85
2022/03/27 15:08:10;;;;;;;10.32;3.95;;;;;;;14.36;37.88;101726.95;3540358;82;98625;-85
2022/03/27 15:13:15;;;;;;;11.35;3.92;;;;;;;14.29;38.76;101726.84;3546374;82;99080;-84
2022/03/27 15:18:18;;;;;;;9.60;3.60;;;;;;;14.24;38.32;101721.63;3524489;82;99041;-84
2022/03/27 15:23:19;;;;;;;9.80;3.55;;;;;;;14.13;38.79;101711.73;3523840;82;98902;-86
2022/03/27 15:28:19;;;;;;;11.57;3.77;;;;;;;14.09;38.88;101702.55;3538110;82;28292;-85
2022/03/27 15:33:22;;;;;;;10.40;3.33;;;;;;;14.00;39.04;101695.08;3526429;82;98848;-85
2022/03/27 15:38:24;;;;;;;9.28;3.83;;;;;;;13.90;39.53;101684.61;3547797;82;98817;-83
2022/03/27 15:43:26;;;;;;;11.45;4.05;;;;;;;13.87;40.10;101670.72;3544590;81;98955;-84
2022/03/27 15:48:28;;;;;;;11.28;4.03;;;;;;;13.81;40.18;101669.42;3520314;82;99086;-84
2022/03/27 15:53:33;;;;;;;14.30;5.08;;;;;;;13.72;40.02;101653.07;3545212;82;99107;-85
2022/03/27 15:58:38;;;;;;;9.15;3.30;;;;;;;13.63;40.53;101645.58;3558932;82;99157;-85
2022/03/27 16:03:41;;;;;;;11.83;4.00;;;;;;;13.53;41.15;101651.72;3520640;82;98749;-84
2022/03/27 16:08:42;;;;;;;14.07;5.78;;;;;;;13.36;41.38;101637.58;3521524;82;99253;-86
2022/03/27 16:13:45;;;;;;;15.13;6.53;;;;;;;13.38;41.59;101648.48;3540090;82;99054;-84
2022/03/27 16:18:45;;;;;;;16.23;7.55;;;;;;;13.30;41.85;101639.05;3524856;82;99334;-85
2022/03/27 16:23:47;;;;;;;13.37;4.53;;;;;;;13.22;42.36;101634.53;3526097;82;99069;-86
2022/03/27 16:28:48;;;;;;;17.45;7.47;;;;;;;13.13;42.40;101638.91;3536444;82;98951;-86
2022/03/27 16:33:50;;;;;;;16.67;7.20;;;;;;;13.07;42.82;101632.07;3532139;82;98969;-85
2022/03/27 16:38:53;;;;;;;12.07;4.87;;;;;;;13.01;43.15;101628.00;3534406;82;98874;-86
2022/03/27 16:43:54;;;;;;;11.10;4.37;;;;;;;12.95;43.37;101624.48;3523147;82;99202;-85
2022/03/27 16:48:56;;;;;;;13.27;5.37;;;;;;;12.77;43.71;101608.94;3528072;82;99050;-84
2022/03/27 16:53:59;;;;;;;11.03;5.12;;;;;;;12.78;43.76;101613.86;3540098;82;98950;-85
2022/03/27 16:59:01;;;;;;;12.88;5.20;;;;;;;12.66;43.79;101607.91;3553271;82;98995;-86
2022/03/27 17:04:04;;;;;;;11.00;4.40;;;;;;;12.58;44.66;101608.09;3537760;82;98785;-86
2022/03/27 17:09:09;;;;;;;11.45;4.45;;;;;;;12.45;45.73;101607.45;3511515;82;98852;-86
2022/03/27 17:14:10;;;;;;;16.37;4.85;;;;;;;12.36;46.09;101599.13;3547592;82;98859;-85
2022/03/27 17:19:12;;;;;;;20.43;7.50;;;;;;;12.22;45.54;101590.54;3559121;82;99157;-85
2022/03/27 17:24:14;;;;;;;13.95;5.47;;;;;;;12.07;45.60;101582.52;3551754;82;99074;-85
2022/03/27 17:29:15;;;;;;;15.10;6.07;;;;;;;11.93;47.33;101590.45;3528149;82;99075;-85
2022/03/27 17:34:16;;;;;;;10.60;5.13;;;;;;;11.74;47.90;101593.14;3540981;82;98799;-86
2022/03/27 17:39:17;;;;;;;12.47;5.77;;;;;;;11.55;49.23;101593.60;3539513;82;98790;-86
2022/03/27 17:44:19;;;;;;;18.13;7.27;;;;;;;11.34;49.63;101593.05;3543491;82;99068;-86
2022/03/27 17:49:24;;;;;;;20.10;8.90;;;;;;;11.20;50.44;101588.52;3559172;82;99101;-84
2022/03/27 17:54:26;;;;;;;19.87;9.55;;;;;;;10.99;51.20;101583.80;3555037;82;99273;-85
2022/03/27 17:59:29;;;;;;;22.35;10.45;;;;;;;10.76;51.62;101582.77;3553757;81;99107;-85
2022/03/27 18:04:30;;;;;;;20.02;10.25;;;;;;;10.45;51.86;101573.81;3529661;82;99117;-86
2022/03/27 18:09:39;;;;;;;27.63;15.10;;;;;;;10.26;52.82;101576.95;3549961;82;98819;-86
2022/03/27 18:14:42;;;;;;;37.73;17.23;;;;;;;10.09;53.39;101576.62;3560808;82;99085;-86
2022/03/27 18:19:43;;;;;;;31.55;14.50;;;;;;;9.89;53.59;101574.80;3555982;82;99128;-87
2022/03/27 18:24:46;;;;;;;29.55;14.60;;;;;;;9.67;54.30;101579.37;3515105;82;98826;-87
2022/03/27 18:29:51;;;;;;;32.98;15.38;;;;;;;9.54;54.77;101582.45;3551462;82;98960;-86
2022/03/27 18:34:50;;;;;;;34.18;15.80;;;;;;;9.41;55.08;101584.38;3530751;82;98909;-86
2022/03/27 18:39:50;;;;;;;32.17;15.53;;;;;;;9.23;55.39;101589.03;3538362;82;25896;-86
2022/03/27 18:44:53;;;;;;;32.57;15.93;;;;;;;9.04;55.68;101591.47;3524638;81;98712;-86
2022/03/27 18:49:58;;;;;;;47.15;20.50;;;;;;;8.87;56.02;101589.72;3548763;82;98800;-85
2022/03/27 18:55:00;;;;;;;46.80;21.52;;;;;;;8.74;56.79;101592.19;3474712;84;98955;-85
2022/03/27 19:00:07;;;;;;;54.05;26.73;;;;;;;8.52;57.08;101588.98;3457576;84;98826;-86
2022/03/27 19:05:14;;;;;;;52.30;24.95;;;;;;;8.33;57.67;101584.51;3447559;84;98976;-86
2022/03/27 19:10:18;;;;;;;53.38;25.17;;;;;;;8.20;58.19;101582.84;3466165;83;32553;-86
2022/03/27 19:15:21;;;;;;;54.70;25.40;;;;;;;8.03;58.52;101581.00;3453014;84;98441;-84
2022/03/27 19:20:36;;;;;;;55.47;26.80;;;;;;;7.91;58.87;101583.63;3408135;84;98902;-86
2022/03/27 19:25:43;;;;;;;57.05;28.70;;;;;;;7.84;59.44;101579.23;3436682;84;98929;-86
2022/03/27 19:30:44;;;;;;;62.17;30.15;;;;;;;7.67;59.53;101573.84;3446328;84;98770;-86
2022/03/27 19:35:47;;;;;;;55.23;28.00;;;;;;;7.51;59.80;101576.08;3442307;84;98909;-86
2022/03/27 19:40:49;;;;;;;51.65;24.27;;;;;;;7.35;60.47;101575.02;3430815;84;33635;-86
2022/03/27 19:45:50;;;;;;;47.07;22.20;;;;;;;7.27;60.93;101579.97;3438707;84;98792;-87
2022/03/27 19:50:53;;;;;;;48.23;22.00;;;;;;;7.13;61.02;101585.64;3428019;85;98709;-86
2022/03/27 19:55:56;;;;;;;41.00;21.52;;;;;;;7.05;61.42;101579.63;3423182;84;98908;-86
2022/03/27 20:00:58;;;;;;;45.05;21.00;;;;;;;6.97;61.71;101573.59;3435823;85;98914;-87
2022/03/27 20:06:01;;;;;;;48.70;23.07;;;;;;;6.88;62.32;101582.95;3414329;85;98401;-89
2022/03/27 20:11:03;;;;;;;54.23;25.27;;;;;;;6.76;62.84;101571.88;3431111;85;99163;-86
2022/03/27 20:16:07;;;;;;;49.50;24.40;;;;;;;6.67;62.81;101562.86;3458111;84;98346;-87
2022/03/27 20:21:09;;;;;;;60.17;29.02;;;;;;;6.55;63.11;101558.61;3444940;84;98632;-84
2022/03/27 20:26:10;;;;;;;60.92;29.80;;;;;;;6.39;63.34;101550.06;3430625;84;99240;-86
2022/03/27 20:31:12;;;;;;;58.40;29.03;;;;;;;6.28;63.84;101558.93;3398753;86;99284;-86
2022/03/27 20:36:13;;;;;;;51.43;25.77;;;;;;;6.21;64.16;101558.61;3542109;82;99279;-86
2022/03/27 20:41:14;;;;;;;48.83;25.43;;;;;;;6.09;64.11;101557.86;3522013;82;98907;-86
2022/03/27 20:46:15;;;;;;;44.30;25.30;;;;;;;6.02;64.72;101554.80;3511039;82;98308;-86
2022/03/27 20:51:16;;;;;;;46.30;25.37;;;;;;;5.91;64.72;101556.78;3522327;82;98563;-86
2022/03/27 20:56:17;;;;;;;65.30;26.20;;;;;;;5.79;65.19;101547.80;3526891;82;98698;-86
2022/03/27 21:01:19;;;;;;;48.30;24.53;;;;;;;5.70;65.71;101543.44;3542825;82;98814;-86
2022/03/27 21:06:20;;;;;;;45.80;22.85;;;;;;;5.55;65.94;101543.32;3521663;82;98875;-86
2022/03/27 21:11:21;;;;;;;43.07;22.13;;;;;;;5.44;66.28;101531.08;3534332;82;98778;-86
2022/03/27 21:16:22;;;;;;;47.27;22.93;;;;;;;5.35;66.39;101528.86;3510951;82;98525;-87
2022/03/27 21:21:23;;;;;;;43.97;19.93;;;;;;;5.25;66.78;101533.23;3514876;82;98662;-86
2022/03/27 21:26:24;;;;;;;40.30;21.27;;;;;;;5.14;66.89;101527.80;3530654;82;98572;-86
2022/03/27 21:31:25;;;;;;;37.20;18.30;;;;;;;5.10;67.76;101524.12;3532664;82;98905;-86
2022/03/27 21:36:26;;;;;;;36.48;19.58;;;;;;;5.03;67.72;101525.10;3517661;83;98835;-87
2022/03/27 21:41:27;;;;;;;32.83;17.00;;;;;;;4.97;68.02;101511.93;3535946;83;98882;-83
2022/03/27 21:46:28;;;;;;;33.77;19.00;;;;;;;4.90;68.02;101512.38;3425558;85;33532;-86
2022/03/27 21:51:30;;;;;;;33.83;16.57;;;;;;;4.84;68.13;101513.62;3443366;85;99091;-85
2022/03/27 21:56:31;;;;;;;31.97;15.80;;;;;;;4.78;68.57;101503.14;3539202;83;98630;-86
2022/03/27 22:01:32;;;;;;;33.90;16.40;;;;;;;4.70;68.73;101498.46;3538610;82;98907;-86
2022/03/27 22:06:33;;;;;;;29.03;13.50;;;;;;;4.65;69.43;101497.22;3561939;82;98816;-86
2022/03/27 22:11:35;;;;;;;30.33;12.67;;;;;;;4.65;69.54;101477.56;3545296;82;98874;-86
2022/03/27 22:16:36;;;;;;;23.67;10.93;;;;;;;4.68;70.06;101473.41;3554672;83;33400;-85
2022/03/27 22:21:37;;;;;;;22.83;11.77;;;;;;;4.85;70.12;101472.95;3502425;83;98680;-85
2022/03/27 22:26:38;;;;;;;23.25;9.88;;;;;;;5.04;70.20;101474.91;3505218;83;98741;-85
2022/03/27 22:31:39;;;;;;;22.90;10.55;;;;;;;5.20;70.51;101473.36;3514876;83;98714;-86
2022/03/27 22:36:40;;;;;;;21.37;9.93;;;;;;;5.31;69.83;101469.77;3521402;82;98889;-86
2022/03/27 22:41:41;;;;;;;19.93;9.07;;;;;;;5.40;69.90;101461.05;3540203;82;98729;-86
2022/03/27 22:46:43;;;;;;;23.90;9.80;;;;;;;5.50;69.88;101462.09;3532717;82;33389;-87
2022/03/27 22:51:45;;;;;;;22.07;8.97;;;;;;;5.52;70.01;101452.47;3519149;82;98736;-86
2022/03/27 22:56:46;;;;;;;19.70;9.17;;;;;;;5.52;69.96;101442.12;3530234;82;98613;-87
2022/03/27 23:01:47;;;;;;;22.47;11.10;;;;;;;5.50;69.76;101438.89;3524693;82;98809;-86
2022/03/27 23:06:48;;;;;;;21.80;10.10;;;;;;;5.46;70.01;101433.27;3533365;82;98821;-87
2022/03/27 23:11:49;;;;;;;19.48;10.63;;;;;;;5.41;69.82;101430.69;3520201;82;98936;-87
2022/03/27 23:16:51;;;;;;;20.97;9.60;;;;;;;5.36;69.73;101430.05;3514920;82;33376;-86
2022/03/27 23:21:52;;;;;;;22.35;9.35;;;;;;;5.32;70.15;101427.16;3502461;83;98592;-86
2022/03/27 23:26:53;;;;;;;22.17;10.23;;;;;;;5.26;70.02;101418.88;3543251;82;98413;-87
2022/03/27 23:31:54;;;;;;;24.30;10.20;;;;;;;5.18;70.59;101418.86;3535244;82;98888;-87